createdAt,value
2018-06-29T00:00:19.529Z,19.30
2018-06-29T00:02:21.799Z,19.30
2018-06-29T00:04:23.998Z,19.30
2018-06-29T00:06:26.115Z,19.20
2018-06-29T00:08:28.290Z,19.30
2018-06-29T00:10:30.486Z,19.30
2018-06-29T00:12:32.625Z,19.20
2018-06-29T00:14:34.762Z,19.20
2018-06-29T00:16:36.966Z,19.20
2018-06-29T00:18:39.021Z,19.20
2018-06-29T00:20:41.146Z,19.20
2018-06-29T00:22:43.285Z,19.20
2018-06-29T00:24:45.449Z,19.20
2018-06-29T00:26:47.606Z,19.00
2018-06-29T00:28:49.838Z,19.00
2018-06-29T00:30:51.962Z,19.00
2018-06-29T00:32:54.087Z,19.00
2018-06-29T00:34:56.556Z,19.10
2018-06-29T00:36:58.657Z,19.00
2018-06-29T00:39:01.117Z,18.90
2018-06-29T00:41:03.303Z,18.90
2018-06-29T00:43:05.446Z,18.90
2018-06-29T00:45:07.577Z,18.80
2018-06-29T00:47:09.733Z,18.80
2018-06-29T00:49:11.993Z,18.80
2018-06-29T00:51:14.283Z,18.80
2018-06-29T00:53:16.409Z,18.70
2018-06-29T00:55:18.559Z,18.70
2018-06-29T00:57:20.702Z,18.70
2018-06-29T00:59:22.829Z,18.60
2018-06-29T01:01:24.963Z,18.70
2018-06-29T01:03:27.437Z,18.60
2018-06-29T01:05:29.581Z,18.50
2018-06-29T01:07:31.698Z,18.70
2018-06-29T01:09:33.862Z,18.50
2018-06-29T01:11:35.986Z,18.50
2018-06-29T01:13:38.211Z,18.40
2018-06-29T01:15:40.378Z,18.40
2018-06-29T01:17:42.518Z,18.40
2018-06-29T01:19:44.633Z,18.50
2018-06-29T01:21:46.890Z,18.50
2018-06-29T01:23:49.011Z,18.40
2018-06-29T01:25:51.126Z,18.30
2018-06-29T01:27:53.256Z,18.30
2018-06-29T01:29:55.406Z,18.30
2018-06-29T01:31:57.545Z,18.30
2018-06-29T01:33:59.677Z,18.30
2018-06-29T01:36:01.868Z,18.30
2018-06-29T01:38:04.854Z,18.30
2018-06-29T01:40:07.185Z,18.30
2018-06-29T01:42:09.354Z,18.30
2018-06-29T01:44:11.490Z,18.30
2018-06-29T01:46:13.650Z,18.40
2018-06-29T01:48:15.769Z,18.20
2018-06-29T01:50:17.897Z,18.20
2018-06-29T01:52:20.083Z,18.20
2018-06-29T01:54:22.177Z,18.20
2018-06-29T01:56:24.301Z,18.10
2018-06-29T01:58:26.824Z,18.20
2018-06-29T02:00:29.066Z,18.10
2018-06-29T02:02:31.193Z,18.10
2018-06-29T02:04:33.332Z,18.10
2018-06-29T02:06:35.463Z,18.10
2018-06-29T02:08:37.603Z,18.10
2018-06-29T02:10:39.805Z,18.00
2018-06-29T02:12:41.946Z,18.00
2018-06-29T02:14:44.069Z,18.00
2018-06-29T02:16:46.197Z,18.00
2018-06-29T02:18:48.412Z,17.90
2018-06-29T02:20:50.563Z,17.90
2018-06-29T02:22:52.667Z,17.90
2018-06-29T02:24:55.171Z,17.90
2018-06-29T02:26:57.319Z,17.80
2018-06-29T02:28:59.421Z,17.90
2018-06-29T02:31:01.657Z,17.90
2018-06-29T02:33:03.820Z,17.80
2018-06-29T02:35:05.958Z,17.80
2018-06-29T02:37:08.123Z,17.70
2018-06-29T02:39:12.015Z,17.80
2018-06-29T02:41:14.229Z,17.70
2018-06-29T02:43:16.390Z,17.80
2018-06-29T02:45:18.550Z,17.70
2018-06-29T02:47:20.689Z,17.60
2018-06-29T02:49:22.854Z,17.60
2018-06-29T02:51:24.991Z,17.70
2018-06-29T02:53:27.122Z,17.80
2018-06-29T02:55:29.252Z,17.70
2018-06-29T02:57:31.474Z,17.60
2018-06-29T02:59:33.854Z,17.80
2018-06-29T03:01:35.966Z,17.60
2018-06-29T03:03:38.077Z,17.50
2018-06-29T03:05:40.158Z,17.50
2018-06-29T03:07:42.429Z,17.40
2018-06-29T03:09:44.586Z,17.50
2018-06-29T03:11:46.698Z,17.50
2018-06-29T03:13:48.843Z,17.40
2018-06-29T03:15:51.075Z,17.40
2018-06-29T03:17:53.323Z,17.40
2018-06-29T03:19:55.453Z,17.40
2018-06-29T03:21:57.600Z,17.40
2018-06-29T03:23:59.752Z,17.40
2018-06-29T03:26:01.911Z,17.40
2018-06-29T03:28:04.157Z,17.40
2018-06-29T03:30:06.478Z,17.40
2018-06-29T03:32:08.674Z,17.50
2018-06-29T03:34:10.769Z,17.40
2018-06-29T03:36:12.905Z,17.40
2018-06-29T03:38:15.086Z,17.30
2018-06-29T03:40:17.274Z,17.30
2018-06-29T03:42:19.377Z,17.10
2018-06-29T03:44:21.494Z,17.20
2018-06-29T03:46:23.655Z,17.20
2018-06-29T03:48:25.815Z,17.10
2018-06-29T03:50:27.966Z,17.10
2018-06-29T03:52:30.106Z,17.10
2018-06-29T03:54:39.093Z,17.10
2018-06-29T03:56:41.244Z,17.00
2018-06-29T03:58:43.383Z,17.00
2018-06-29T04:00:45.514Z,17.00
2018-06-29T04:02:47.651Z,17.00
2018-06-29T04:04:49.790Z,17.00
2018-06-29T04:06:51.919Z,17.20
2018-06-29T04:08:54.127Z,17.10
2018-06-29T04:10:56.263Z,17.10
2018-06-29T04:12:58.410Z,17.00
2018-06-29T04:15:00.683Z,17.00
2018-06-29T04:17:02.806Z,17.10
2018-06-29T04:19:05.014Z,17.10
2018-06-29T04:21:07.282Z,17.20
2018-06-29T04:23:09.440Z,17.20
2018-06-29T04:25:11.626Z,17.10
2018-06-29T04:27:13.832Z,17.10
2018-06-29T04:29:15.953Z,17.10
2018-06-29T04:31:18.101Z,17.00
2018-06-29T04:33:20.250Z,17.00
2018-06-29T04:35:22.386Z,17.10
2018-06-29T04:37:24.506Z,16.90
2018-06-29T04:39:26.670Z,17.00
2018-06-29T04:41:28.790Z,17.20
2018-06-29T04:43:30.910Z,17.20
2018-06-29T04:45:33.066Z,17.10
2018-06-29T04:47:35.187Z,17.20
2018-06-29T04:49:37.318Z,17.30
2018-06-29T04:51:39.430Z,17.40
2018-06-29T04:53:41.561Z,17.30
2018-06-29T04:55:43.680Z,17.30
2018-06-29T04:57:45.987Z,17.30
2018-06-29T04:59:48.107Z,17.40
2018-06-29T05:01:50.446Z,17.50
2018-06-29T05:03:52.621Z,17.50
2018-06-29T05:05:54.718Z,17.60
2018-06-29T05:07:56.857Z,17.70
2018-06-29T05:09:59.179Z,17.60
2018-06-29T05:12:02.790Z,17.40
2018-06-29T05:14:04.911Z,17.20
2018-06-29T05:16:07.045Z,17.20
2018-06-29T05:18:09.249Z,17.40
2018-06-29T05:20:11.677Z,17.70
2018-06-29T05:22:13.862Z,17.70
2018-06-29T05:24:16.025Z,17.60
2018-06-29T05:26:18.235Z,17.50
2018-06-29T05:28:24.646Z,17.60
2018-06-29T05:30:26.910Z,17.50
2018-06-29T05:33:05.328Z,17.70
2018-06-29T05:35:07.574Z,17.80
2018-06-29T05:37:10.738Z,18.00
2018-06-29T05:39:12.837Z,18.00
2018-06-29T05:41:14.948Z,18.00
2018-06-29T05:43:17.165Z,18.00
2018-06-29T05:45:19.263Z,18.00
2018-06-29T05:47:21.600Z,18.10
2018-06-29T05:49:23.798Z,18.20
2018-06-29T05:51:25.819Z,18.30
2018-06-29T05:53:27.994Z,18.40
2018-06-29T05:55:30.147Z,18.50
2018-06-29T05:57:32.301Z,18.50
2018-06-29T05:59:34.350Z,18.50
2018-06-29T06:01:36.479Z,18.60
2018-06-29T06:03:38.644Z,18.30
2018-06-29T06:05:40.878Z,18.20
2018-06-29T06:07:42.981Z,18.30
2018-06-29T06:09:46.192Z,18.30
2018-06-29T06:11:48.357Z,18.50
2018-06-29T06:13:50.503Z,18.60
2018-06-29T06:15:52.669Z,18.80
2018-06-29T06:17:54.809Z,18.90
2018-06-29T06:20:05.560Z,19.00
2018-06-29T06:22:08.036Z,19.20
2018-06-29T06:24:10.301Z,19.20
2018-06-29T06:26:12.427Z,19.30
2018-06-29T06:28:14.747Z,19.30
2018-06-29T06:30:16.969Z,19.30
2018-06-29T06:32:19.303Z,19.40
2018-06-29T06:34:21.463Z,19.50
2018-06-29T06:36:23.710Z,19.60
2018-06-29T06:38:25.885Z,19.60
2018-06-29T06:40:28.042Z,19.60
2018-06-29T06:42:30.142Z,19.70
2018-06-29T06:44:32.358Z,19.80
2018-06-29T06:46:34.646Z,19.90
2018-06-29T06:48:36.897Z,19.90
2018-06-29T06:50:39.306Z,19.80
2018-06-29T06:52:41.524Z,19.90
2018-06-29T06:54:43.674Z,20.10
2018-06-29T06:56:45.984Z,20.20
2018-06-29T07:00:50.271Z,20.10
2018-06-29T07:02:52.666Z,20.10
2018-06-29T07:04:54.786Z,20.20
2018-06-29T07:06:56.928Z,20.30
2018-06-29T07:08:59.039Z,20.40
2018-06-29T07:11:01.174Z,20.50
2018-06-29T07:13:03.330Z,20.50
2018-06-29T07:15:05.518Z,20.70
2018-06-29T07:17:07.664Z,20.80
2018-06-29T07:19:09.764Z,20.90
2018-06-29T07:21:11.888Z,21.10
2018-06-29T07:23:14.200Z,21.20
2018-06-29T07:25:16.314Z,21.00
2018-06-29T07:27:18.475Z,21.10
2018-06-29T07:29:20.683Z,21.10
2018-06-29T07:31:22.860Z,21.20
2018-06-29T07:33:24.985Z,21.30
2018-06-29T07:35:27.211Z,21.30
2018-06-29T07:37:29.477Z,21.40
2018-06-29T07:39:31.676Z,21.50
2018-06-29T07:43:42.659Z,21.60
2018-06-29T07:45:44.791Z,21.70
2018-06-29T07:47:47.044Z,21.90
2018-06-29T07:49:49.180Z,22.10
2018-06-29T07:51:51.315Z,22.10
2018-06-29T07:53:53.527Z,22.00
2018-06-29T07:55:55.681Z,21.90
2018-06-29T07:57:57.822Z,21.70
2018-06-29T07:59:59.984Z,21.90
2018-06-29T08:02:02.149Z,22.20
2018-06-29T08:04:04.273Z,22.40
2018-06-29T08:06:06.421Z,22.50
2018-06-29T08:08:08.618Z,22.70
2018-06-29T08:10:10.842Z,22.70
2018-06-29T08:12:13.022Z,22.60
2018-06-29T08:14:15.157Z,22.70
2018-06-29T08:16:17.325Z,22.70
2018-06-29T08:18:19.486Z,22.70
2018-06-29T08:20:21.590Z,22.80
2018-06-29T08:22:23.749Z,22.80
2018-06-29T08:24:28.904Z,23.00
2018-06-29T08:26:31.043Z,23.00
2018-06-29T08:28:33.231Z,23.00
2018-06-29T08:30:35.384Z,22.90
2018-06-29T08:32:37.894Z,23.00
2018-06-29T08:34:40.086Z,22.90
2018-06-29T08:36:42.234Z,23.00
2018-06-29T08:38:44.778Z,23.20
2018-06-29T08:40:46.817Z,23.30
2018-06-29T08:42:48.945Z,23.30
2018-06-29T08:44:51.137Z,23.40
2018-06-29T08:46:53.371Z,23.60
2018-06-29T08:48:55.443Z,23.70
2018-06-29T08:50:58.075Z,23.60
2018-06-29T08:53:00.184Z,23.60
2018-06-29T08:55:02.465Z,23.60
2018-06-29T08:57:04.634Z,23.50
2018-06-29T08:59:06.857Z,23.60
2018-06-29T09:01:09.035Z,23.70
2018-06-29T09:03:11.161Z,23.70
2018-06-29T09:05:13.258Z,23.80
2018-06-29T09:07:15.444Z,23.90
2018-06-29T09:09:18.088Z,23.90
2018-06-29T09:11:20.279Z,24.00
2018-06-29T09:13:22.437Z,24.10
2018-06-29T09:15:24.573Z,24.20
2018-06-29T09:17:26.938Z,24.30
2018-06-29T09:19:29.266Z,24.30
2018-06-29T09:21:31.524Z,24.60
2018-06-29T09:23:33.750Z,25.00
2018-06-29T09:25:35.898Z,25.10
2018-06-29T09:27:38.025Z,24.80
2018-06-29T09:29:40.157Z,24.70
2018-06-29T09:31:42.694Z,24.60
2018-06-29T09:33:44.850Z,24.80
2018-06-29T09:35:47.090Z,24.90
2018-06-29T09:37:49.233Z,24.80
2018-06-29T09:39:51.336Z,24.80
2018-06-29T09:41:53.499Z,24.90
2018-06-29T09:43:55.619Z,25.00
2018-06-29T09:45:57.753Z,25.00
2018-06-29T09:47:59.937Z,25.10
2018-06-29T09:50:02.066Z,25.20
2018-06-29T09:54:06.883Z,25.30
2018-06-29T09:56:09.040Z,25.20
2018-06-29T09:58:11.247Z,25.40
2018-06-29T10:00:16.022Z,25.70
2018-06-29T10:02:18.169Z,25.60
2018-06-29T10:04:20.327Z,25.80
2018-06-29T10:06:22.594Z,25.90
2018-06-29T10:08:24.757Z,26.00
2018-06-29T10:10:26.921Z,26.20
2018-06-29T10:12:29.283Z,26.30
2018-06-29T10:14:31.630Z,26.20
2018-06-29T10:16:34.024Z,26.20
2018-06-29T10:18:36.222Z,26.30
2018-06-29T10:20:38.393Z,26.40
2018-06-29T10:22:40.670Z,26.00
2018-06-29T10:24:42.889Z,26.00
2018-06-29T10:26:45.064Z,26.30
2018-06-29T10:28:47.214Z,26.20
2018-06-29T10:30:49.520Z,26.20
2018-06-29T10:32:51.747Z,26.50
2018-06-29T10:34:53.914Z,26.60
2018-06-29T10:36:56.191Z,26.70
2018-06-29T10:38:58.392Z,27.00
2018-06-29T10:41:00.599Z,27.00
2018-06-29T10:43:02.781Z,26.90
2018-06-29T10:45:05.199Z,27.30
2018-06-29T10:47:07.294Z,27.70
2018-06-29T10:49:09.454Z,27.90
2018-06-29T10:51:11.605Z,28.00
2018-06-29T10:53:13.751Z,28.10
2018-06-29T10:55:15.934Z,28.20
2018-06-29T10:57:18.167Z,28.40
2018-06-29T10:59:20.277Z,28.60
2018-06-29T11:01:22.428Z,28.80
2018-06-29T11:03:24.561Z,28.80
2018-06-29T11:05:26.753Z,29.10
2018-06-29T11:07:28.917Z,29.30
2018-06-29T11:09:31.053Z,29.50
2018-06-29T11:11:33.247Z,29.70
2018-06-29T11:13:35.809Z,29.90
2018-06-29T11:15:37.962Z,29.90
2018-06-29T11:17:40.083Z,29.90
2018-06-29T11:19:42.221Z,30.00
2018-06-29T11:21:44.518Z,30.20
2018-06-29T11:23:46.674Z,29.90
2018-06-29T11:27:51.053Z,30.40
2018-06-29T11:29:53.177Z,30.40
2018-06-29T11:31:55.654Z,30.80
2018-06-29T11:33:57.815Z,30.90
2018-06-29T11:36:00.011Z,30.70
2018-06-29T11:38:02.158Z,30.90
2018-06-29T11:40:04.368Z,31.30
2018-06-29T11:42:06.658Z,31.00
2018-06-29T11:44:08.902Z,30.90
2018-06-29T11:46:11.125Z,30.90
2018-06-29T11:48:13.294Z,31.00
2018-06-29T11:50:15.455Z,31.10
2018-06-29T11:52:17.758Z,31.10
2018-06-29T11:54:20.001Z,31.20
2018-06-29T11:56:22.358Z,31.40
2018-06-29T11:58:24.657Z,31.50
2018-06-29T12:00:26.785Z,31.30
2018-06-29T12:02:28.956Z,31.40
2018-06-29T12:04:31.277Z,31.50
2018-06-29T12:06:33.434Z,31.70
2018-06-29T12:08:35.629Z,32.10
2018-06-29T12:10:37.774Z,32.00
2018-06-29T12:12:39.934Z,31.80
2018-06-29T12:14:42.085Z,32.10
2018-06-29T12:16:44.230Z,31.90
2018-06-29T12:18:46.358Z,31.60
2018-06-29T12:20:48.561Z,31.40
2018-06-29T12:22:50.986Z,31.60
2018-06-29T12:24:53.131Z,31.60
2018-06-29T12:26:55.312Z,31.00
2018-06-29T12:28:57.446Z,30.80
2018-06-29T12:30:59.885Z,31.20
2018-06-29T12:33:01.730Z,31.40
2018-06-29T12:35:03.927Z,32.10
2018-06-29T12:37:06.096Z,32.30
2018-06-29T12:39:08.578Z,32.60
2018-06-29T12:41:10.774Z,33.40
2018-06-29T12:43:13.345Z,33.70
2018-06-29T12:45:15.481Z,33.60
2018-06-29T12:47:17.634Z,33.80
2018-06-29T12:49:19.846Z,33.90
2018-06-29T12:51:21.989Z,34.10
2018-06-29T12:53:24.127Z,34.30
2018-06-29T12:55:26.294Z,34.30
2018-06-29T12:57:28.427Z,34.40
2018-06-29T12:59:30.633Z,34.50
2018-06-29T13:01:33.122Z,34.80
2018-06-29T13:03:35.265Z,35.00
2018-06-29T13:05:37.489Z,35.50
2018-06-29T13:09:41.859Z,34.60
2018-06-29T13:11:44.022Z,34.50
2018-06-29T13:13:46.358Z,34.90
2018-06-29T13:15:48.588Z,35.40
2018-06-29T13:17:50.710Z,35.50
2018-06-29T13:19:52.877Z,36.30
2018-06-29T13:21:55.082Z,36.80
2018-06-29T13:23:57.287Z,36.50
2018-06-29T13:25:59.466Z,36.50
2018-06-29T13:28:01.640Z,36.00
2018-06-29T13:32:06.480Z,35.30
2018-06-29T13:34:08.615Z,35.20
2018-06-29T13:36:10.802Z,35.70
2018-06-29T13:38:12.999Z,36.70
2018-06-29T13:40:15.146Z,36.10
2018-06-29T13:42:17.418Z,35.70
2018-06-29T13:44:19.946Z,35.50
2018-06-29T13:46:22.102Z,34.40
2018-06-29T13:48:24.251Z,32.40
2018-06-29T13:50:26.537Z,32.40
2018-06-29T13:52:29.632Z,33.70
2018-06-29T13:54:31.934Z,34.30
2018-06-29T13:56:34.077Z,35.70
2018-06-29T13:58:36.218Z,36.20
2018-06-29T14:00:38.362Z,35.80
2018-06-29T14:02:40.796Z,35.40
2018-06-29T14:04:43.336Z,35.40
2018-06-29T14:06:45.502Z,35.90
2018-06-29T14:08:47.777Z,36.90
2018-06-29T14:10:49.946Z,36.70
2018-06-29T14:12:52.042Z,36.40
2018-06-29T14:14:54.414Z,35.80
2018-06-29T14:16:56.571Z,35.30
2018-06-29T14:18:58.713Z,35.70
2018-06-29T14:21:00.866Z,36.00
2018-06-29T14:23:03.191Z,35.80
2018-06-29T14:25:05.506Z,35.70
2018-06-29T14:27:07.696Z,35.20
2018-06-29T14:29:09.988Z,34.30
2018-06-29T14:31:12.102Z,34.40
2018-06-29T14:33:14.338Z,33.90
2018-06-29T14:35:16.497Z,34.00
2018-06-29T14:37:18.635Z,32.80
2018-06-29T14:39:20.749Z,32.50
2018-06-29T14:41:22.989Z,32.40
2018-06-29T14:43:25.123Z,31.70
2018-06-29T14:45:27.289Z,30.90
2018-06-29T14:49:31.631Z,30.40
2018-06-29T14:51:33.766Z,29.70
2018-06-29T14:53:35.956Z,29.80
2018-06-29T14:55:38.113Z,29.20
2018-06-29T14:57:40.285Z,28.70
2018-06-29T14:59:42.408Z,28.80
2018-06-29T15:01:44.585Z,28.90
2018-06-29T15:03:46.738Z,28.70
2018-06-29T15:05:48.997Z,28.50
2018-06-29T15:07:51.097Z,28.20
2018-06-29T15:09:53.229Z,28.20
2018-06-29T15:11:55.448Z,28.10
2018-06-29T15:13:57.574Z,28.00
2018-06-29T15:15:59.737Z,27.70
2018-06-29T15:18:01.926Z,27.80
2018-06-29T15:20:05.337Z,27.60
2018-06-29T15:22:07.606Z,27.60
2018-06-29T15:24:09.762Z,27.70
2018-06-29T15:26:11.901Z,27.60
2018-06-29T15:28:14.100Z,27.70
2018-06-29T15:30:16.262Z,27.60
2018-06-29T15:32:18.390Z,27.60
2018-06-29T15:34:20.684Z,27.40
2018-06-29T15:36:22.882Z,27.20
2018-06-29T15:38:24.990Z,27.10
2018-06-29T15:40:27.144Z,26.90
2018-06-29T15:42:29.402Z,26.80
2018-06-29T15:44:31.612Z,26.80
2018-06-29T15:46:33.762Z,26.70
2018-06-29T15:48:35.908Z,26.80
2018-06-29T15:50:38.038Z,26.70
2018-06-29T15:52:40.213Z,26.80
2018-06-29T15:54:42.378Z,26.80
2018-06-29T15:56:44.510Z,26.80
2018-06-29T15:58:46.613Z,26.90
2018-06-29T16:00:48.907Z,26.60
2018-06-29T16:02:51.072Z,26.70
2018-06-29T16:04:53.238Z,26.50
2018-06-29T16:06:55.750Z,26.20
2018-06-29T16:08:57.794Z,25.90
2018-06-29T16:11:00.038Z,25.70
2018-06-29T16:13:02.313Z,25.80
2018-06-29T16:15:04.494Z,25.60
2018-06-29T16:17:06.659Z,25.70
2018-06-29T16:19:09.409Z,25.60
2018-06-29T16:21:11.701Z,25.50
2018-06-29T16:23:13.861Z,25.50
2018-06-29T16:25:16.024Z,25.60
2018-06-29T16:27:18.177Z,25.40
2018-06-29T16:29:20.426Z,25.50
2018-06-29T16:31:22.648Z,25.20
2018-06-29T16:33:24.787Z,25.30
2018-06-29T16:35:26.953Z,25.00
2018-06-29T16:37:29.167Z,24.80
2018-06-29T16:39:31.241Z,24.70
2018-06-29T16:41:33.381Z,24.50
2018-06-29T16:43:35.534Z,24.60
2018-06-29T16:45:38.035Z,24.70
2018-06-29T16:47:40.213Z,24.60
2018-06-29T16:49:42.346Z,24.60
2018-06-29T16:51:44.646Z,24.60
2018-06-29T16:53:46.814Z,24.50
2018-06-29T16:55:48.951Z,24.60
2018-06-29T16:57:51.111Z,24.40
2018-06-29T16:59:53.386Z,24.50
2018-06-29T17:01:55.529Z,24.50
2018-06-29T17:03:57.685Z,24.40
2018-06-29T17:05:59.831Z,24.20
2018-06-29T17:08:01.947Z,24.20
2018-06-29T17:10:04.171Z,24.30
2018-06-29T17:12:06.378Z,24.30
2018-06-29T17:14:08.521Z,24.30
2018-06-29T17:16:10.757Z,24.10
2018-06-29T17:18:13.058Z,24.00
2018-06-29T17:20:15.198Z,24.10
2018-06-29T17:22:17.498Z,24.10
2018-06-29T17:24:19.638Z,24.10
2018-06-29T17:26:21.798Z,24.10
2018-06-29T17:28:23.926Z,24.10
2018-06-29T17:30:26.200Z,24.20
2018-06-29T17:32:28.393Z,24.20
2018-06-29T17:34:30.527Z,24.20
2018-06-29T17:36:32.678Z,24.00
2018-06-29T17:38:34.860Z,24.00
2018-06-29T17:40:37.047Z,24.20
2018-06-29T17:42:39.185Z,24.10
2018-06-29T17:44:41.341Z,24.10
2018-06-29T17:46:43.613Z,24.10
2018-06-29T17:48:45.747Z,23.90
2018-06-29T17:50:47.893Z,23.70
2018-06-29T17:52:50.071Z,23.80
2018-06-29T17:54:52.198Z,23.70
2018-06-29T17:56:54.356Z,23.70
2018-06-29T17:58:56.516Z,23.70
2018-06-29T18:00:58.676Z,23.50
2018-06-29T18:03:00.830Z,23.70
2018-06-29T18:05:03.077Z,23.60
2018-06-29T18:07:05.528Z,23.70
2018-06-29T18:09:08.884Z,23.50
2018-06-29T18:11:11.041Z,23.20
2018-06-29T18:13:13.182Z,23.10
2018-06-29T18:15:15.315Z,23.10
2018-06-29T18:17:17.454Z,23.20
2018-06-29T18:19:19.579Z,23.20
2018-06-29T18:23:24.026Z,23.30
2018-06-29T18:25:26.378Z,23.30
2018-06-29T18:27:28.559Z,23.20
2018-06-29T18:29:30.686Z,23.20
2018-06-29T18:31:32.803Z,23.20
2018-06-29T18:33:34.966Z,23.10
2018-06-29T18:35:37.382Z,23.20
2018-06-29T18:37:39.570Z,23.10
2018-06-29T18:39:41.754Z,23.00
2018-06-29T18:41:44.978Z,22.90
2018-06-29T18:43:47.110Z,22.80
2018-06-29T18:45:49.246Z,22.80
2018-06-29T18:47:51.412Z,22.80
2018-06-29T18:49:53.553Z,22.70
2018-06-29T18:51:55.693Z,22.80
2018-06-29T18:53:57.849Z,22.90
2018-06-29T18:56:00.001Z,22.80
2018-06-29T18:58:02.206Z,22.60
2018-06-29T19:00:04.490Z,22.50
2018-06-29T19:02:06.699Z,22.70
2018-06-29T19:04:08.852Z,22.70
2018-06-29T19:06:10.981Z,22.70
2018-06-29T19:08:14.924Z,22.70
2018-06-29T19:10:17.098Z,22.50
2018-06-29T19:12:19.234Z,22.60
2018-06-29T19:14:21.378Z,22.50
2018-06-29T19:16:23.814Z,22.40
2018-06-29T19:18:26.025Z,22.40
2018-06-29T19:20:28.525Z,22.50
2018-06-29T19:22:30.686Z,22.40
2018-06-29T19:24:32.934Z,22.10
2018-06-29T19:26:35.087Z,22.10
2018-06-29T19:28:37.338Z,21.90
2018-06-29T19:30:39.536Z,21.90
2018-06-29T19:32:41.827Z,21.70
2018-06-29T19:34:44.028Z,21.70
2018-06-29T19:36:46.145Z,21.60
2018-06-29T19:38:48.446Z,21.60
2018-06-29T19:40:50.614Z,21.60
2018-06-29T19:42:52.805Z,21.60
2018-06-29T19:44:54.966Z,21.50
2018-06-29T19:46:57.174Z,21.40
2018-06-29T19:48:59.346Z,21.40
2018-06-29T19:51:01.552Z,21.40
2018-06-29T19:53:03.739Z,21.10
2018-06-29T19:55:05.966Z,21.20
2018-06-29T19:57:08.346Z,21.20
2018-06-29T19:59:10.648Z,21.30
2018-06-29T20:01:12.825Z,21.40
2018-06-29T20:03:15.020Z,21.20
2018-06-29T20:05:17.170Z,21.10
2018-06-29T20:07:19.513Z,21.00
2018-06-29T20:09:21.681Z,21.10
2018-06-29T20:11:24.140Z,21.10
2018-06-29T20:13:26.230Z,20.80
2018-06-29T20:15:28.418Z,20.80
2018-06-29T20:17:30.563Z,20.80
2018-06-29T20:19:32.725Z,20.70
2018-06-29T20:21:37.021Z,20.70
2018-06-29T20:23:39.532Z,20.80
2018-06-29T20:25:41.698Z,21.10
2018-06-29T20:27:43.946Z,21.10
2018-06-29T20:29:46.077Z,20.90
2018-06-29T20:31:48.245Z,20.70
2018-06-29T20:33:50.407Z,20.60
2018-06-29T20:35:52.686Z,20.60
2018-06-29T20:37:55.740Z,20.70
2018-06-29T20:39:58.201Z,20.60
2018-06-29T20:42:00.420Z,20.60
2018-06-29T20:44:02.683Z,20.60
2018-06-29T20:46:05.015Z,20.50
2018-06-29T20:48:07.497Z,20.50
2018-06-29T20:50:09.690Z,20.60
2018-06-29T20:52:12.008Z,20.40
2018-06-29T20:54:14.349Z,20.30
2018-06-29T20:56:16.768Z,20.30
2018-06-29T20:58:18.917Z,20.30
2018-06-29T21:00:21.119Z,20.30
2018-06-29T21:02:23.318Z,20.30
2018-06-29T21:04:25.563Z,20.40
2018-06-29T21:06:27.861Z,20.60
2018-06-29T21:08:30.120Z,20.60
2018-06-29T21:10:34.014Z,20.60
2018-06-29T21:12:36.212Z,20.50
2018-06-29T21:14:38.747Z,20.50
2018-06-29T21:16:41.756Z,20.40
2018-06-29T21:18:43.934Z,20.30
2018-06-29T21:20:46.109Z,20.00
2018-06-29T21:22:48.358Z,20.20
2018-06-29T21:24:50.568Z,20.20
2018-06-29T21:26:52.804Z,20.10
2018-06-29T21:28:55.067Z,20.20
2018-06-29T21:30:57.269Z,20.20
2018-06-29T21:32:59.482Z,20.10
2018-06-29T21:35:01.826Z,19.80
2018-06-29T21:37:04.115Z,20.00
2018-06-29T21:39:07.555Z,19.90
2018-06-29T21:41:09.815Z,19.90
2018-06-29T21:43:12.447Z,19.80
2018-06-29T21:45:14.665Z,19.80
2018-06-29T21:47:16.912Z,19.70
2018-06-29T21:49:19.109Z,19.50
2018-06-29T21:51:21.411Z,19.50
2018-06-29T21:53:23.646Z,19.40
2018-06-29T21:55:25.819Z,19.10
2018-06-29T21:57:28.011Z,19.10
2018-06-29T21:59:30.241Z,19.40
2018-06-29T22:01:32.486Z,19.10
2018-06-29T22:05:37.861Z,19.20
2018-06-29T22:07:40.070Z,19.40
2018-06-29T22:09:42.173Z,19.30
2018-06-29T22:11:44.262Z,19.30
2018-06-29T22:13:46.317Z,19.20
2018-06-29T22:15:48.409Z,19.10
2018-06-29T22:17:50.658Z,19.10
2018-06-29T22:19:56.476Z,19.20
2018-06-29T22:21:58.649Z,19.20
2018-06-29T22:24:00.735Z,19.20
2018-06-29T22:26:02.891Z,19.10
2018-06-29T22:28:05.178Z,19.00
2018-06-29T22:30:07.281Z,18.80
2018-06-29T22:32:09.393Z,18.90
2018-06-29T22:34:11.467Z,18.80
2018-06-29T22:36:13.562Z,18.90
2018-06-29T22:38:15.665Z,18.60
2018-06-29T22:40:17.910Z,18.60
2018-06-29T22:42:19.998Z,18.70
2018-06-29T22:44:22.103Z,18.50
2018-06-29T22:46:24.170Z,18.50
2018-06-29T22:48:26.250Z,18.40
2018-06-29T22:50:28.675Z,18.20
2018-06-29T22:52:30.757Z,18.10
2018-06-29T22:54:33.026Z,18.10
2018-06-29T22:56:35.182Z,18.20
2018-06-29T22:58:37.483Z,18.30
2018-06-29T23:00:39.546Z,18.30
2018-06-29T23:02:41.638Z,18.20
2018-06-29T23:04:43.742Z,18.30
2018-06-29T23:06:45.836Z,18.50
2018-06-29T23:08:47.909Z,18.40
2018-06-29T23:10:50.504Z,18.00
2018-06-29T23:14:54.745Z,18.10
2018-06-29T23:16:56.831Z,18.20
2018-06-29T23:18:58.914Z,18.30
2018-06-29T23:21:01.029Z,18.50
2018-06-29T23:23:03.450Z,18.50
2018-06-29T23:25:05.644Z,18.70
2018-06-29T23:27:07.726Z,18.70
2018-06-29T23:29:09.806Z,18.70
2018-06-29T23:31:11.886Z,18.60
2018-06-29T23:33:13.969Z,18.70
2018-06-29T23:35:16.054Z,18.60
2018-06-29T23:37:18.185Z,18.70
2018-06-29T23:39:20.279Z,18.60
2018-06-29T23:41:22.351Z,18.50
2018-06-29T23:43:24.426Z,18.50
2018-06-29T23:45:26.627Z,18.60
2018-06-29T23:47:28.625Z,18.50
2018-06-29T23:49:30.741Z,18.50
2018-06-29T23:51:32.858Z,18.30
2018-06-29T23:53:34.931Z,18.30
2018-06-29T23:55:37.005Z,18.40
2018-06-29T23:57:39.269Z,18.50
2018-06-29T23:59:41.386Z,18.40
